createdAt,value
2023-05-02T00:00:12.039Z,0.00
2023-05-02T00:01:12.062Z,0.00
2023-05-02T00:02:12.025Z,0.00
2023-05-02T00:03:12.114Z,0.00
2023-05-02T00:04:12.051Z,0.00
2023-05-02T00:05:12.006Z,0.00
2023-05-02T00:06:11.963Z,0.00
2023-05-02T00:07:11.981Z,0.00
2023-05-02T00:08:11.942Z,0.00
2023-05-02T00:09:11.940Z,0.00
2023-05-02T00:10:11.963Z,0.00
2023-05-02T00:11:11.934Z,0.00
2023-05-02T00:12:11.905Z,0.00
2023-05-02T00:13:11.859Z,0.00
2023-05-02T00:14:11.868Z,0.00
2023-05-02T00:15:11.858Z,0.00
2023-05-02T00:16:11.844Z,0.00
2023-05-02T00:17:11.981Z,0.00
2023-05-02T00:18:11.994Z,0.00
2023-05-02T00:19:11.793Z,0.00
2023-05-02T00:20:11.814Z,0.00
2023-05-02T00:21:11.770Z,0.00
2023-05-02T00:22:11.812Z,0.00
2023-05-02T00:23:11.752Z,0.00
2023-05-02T00:24:11.860Z,0.00
2023-05-02T00:25:11.747Z,0.00
2023-05-02T00:26:11.699Z,0.00
2023-05-02T00:27:11.755Z,0.00
2023-05-02T00:28:11.730Z,0.00
2023-05-02T00:29:11.703Z,0.00
2023-05-02T00:30:11.696Z,0.00
2023-05-02T00:31:11.736Z,0.00
2023-05-02T00:32:11.660Z,0.00
2023-05-02T00:33:11.708Z,0.00
2023-05-02T00:34:11.724Z,0.00
2023-05-02T00:35:11.684Z,0.00
2023-05-02T00:36:11.595Z,0.00
2023-05-02T00:37:11.654Z,0.00
2023-05-02T00:38:11.588Z,0.00
2023-05-02T00:39:11.617Z,0.00
2023-05-02T00:40:11.576Z,0.00
2023-05-02T00:41:11.593Z,0.00
2023-05-02T00:42:11.544Z,0.00
2023-05-02T00:43:11.578Z,0.00
2023-05-02T00:44:11.534Z,0.00
2023-05-02T00:45:11.533Z,0.00
2023-05-02T00:46:11.557Z,0.00
2023-05-02T00:47:11.526Z,0.00
2023-05-02T00:48:11.598Z,0.00
2023-05-02T00:49:11.493Z,0.00
2023-05-02T00:50:11.441Z,0.00
2023-05-02T00:51:11.462Z,0.00
2023-05-02T00:52:11.423Z,0.00
2023-05-02T00:53:11.462Z,0.00
2023-05-02T00:54:12.005Z,0.00
2023-05-02T00:55:11.420Z,0.00
2023-05-02T00:56:11.393Z,0.00
2023-05-02T00:57:11.401Z,0.00
2023-05-02T00:58:11.403Z,0.00
2023-05-02T00:59:11.342Z,0.00
2023-05-02T01:00:11.370Z,0.00
2023-05-02T01:01:11.479Z,0.00
2023-05-02T01:02:11.530Z,0.00
2023-05-02T01:03:11.416Z,0.00
2023-05-02T01:04:11.490Z,0.00
2023-05-02T01:05:11.288Z,0.00
2023-05-02T01:06:11.327Z,0.00
2023-05-02T01:07:11.299Z,0.00
2023-05-02T01:08:11.260Z,0.00
2023-05-02T01:09:11.256Z,0.00
2023-05-02T01:10:11.270Z,0.00
2023-05-02T01:11:11.254Z,0.00
2023-05-02T01:12:11.201Z,0.00
2023-05-02T01:13:11.252Z,0.00
2023-05-02T01:14:11.205Z,0.00
2023-05-02T01:15:11.174Z,0.00
2023-05-02T01:16:11.181Z,0.00
2023-05-02T01:17:11.136Z,0.00
2023-05-02T01:18:11.205Z,0.00
2023-05-02T01:19:11.139Z,0.00
2023-05-02T01:20:11.134Z,0.00
2023-05-02T01:21:11.106Z,0.00
2023-05-02T01:22:11.110Z,0.00
2023-05-02T01:23:11.150Z,0.00
2023-05-02T01:24:11.078Z,0.00
2023-05-02T01:25:11.063Z,0.00
2023-05-02T01:26:11.068Z,0.00
2023-05-02T01:27:11.085Z,0.00
2023-05-02T01:28:11.045Z,0.00
2023-05-02T01:29:11.044Z,0.00
2023-05-02T01:30:11.032Z,0.00
2023-05-02T01:31:11.007Z,0.00
2023-05-02T01:32:10.974Z,0.00
2023-05-02T01:33:11.084Z,0.00
2023-05-02T01:34:10.955Z,0.00
2023-05-02T01:35:10.942Z,0.00
2023-05-02T01:36:10.940Z,0.00
2023-05-02T01:37:10.925Z,0.00
2023-05-02T01:38:10.945Z,0.00
2023-05-02T01:39:10.885Z,0.00
2023-05-02T01:40:10.879Z,0.00
2023-05-02T01:41:10.888Z,0.00
2023-05-02T01:42:10.897Z,0.00
2023-05-02T01:43:10.897Z,0.00
2023-05-02T01:44:10.856Z,0.00
2023-05-02T01:45:10.859Z,0.00
2023-05-02T01:46:10.865Z,0.00
2023-05-02T01:47:10.983Z,0.00
2023-05-02T01:48:10.859Z,0.00
2023-05-02T01:49:10.785Z,0.00
2023-05-02T01:50:10.792Z,0.00
2023-05-02T01:51:11.326Z,0.00
2023-05-02T01:52:10.753Z,0.00
2023-05-02T01:53:10.770Z,0.00
2023-05-02T01:54:10.766Z,0.00
2023-05-02T01:55:10.760Z,0.00
2023-05-02T01:56:10.711Z,0.00
2023-05-02T01:57:10.720Z,0.00
2023-05-02T01:58:10.713Z,0.00
2023-05-02T01:59:10.698Z,0.00
2023-05-02T02:00:10.701Z,0.00
2023-05-02T02:01:10.682Z,0.00
2023-05-02T02:02:10.622Z,0.00
2023-05-02T02:03:10.678Z,0.00
2023-05-02T02:04:10.687Z,0.00
2023-05-02T02:05:10.590Z,0.00
2023-05-02T02:06:10.621Z,0.00
2023-05-02T02:07:10.589Z,0.00
2023-05-02T02:08:10.997Z,0.00
2023-05-02T02:09:10.570Z,0.00
2023-05-02T02:10:10.566Z,0.00
2023-05-02T02:11:10.550Z,0.00
2023-05-02T02:12:10.518Z,0.00
2023-05-02T02:13:10.595Z,0.00
2023-05-02T02:14:10.495Z,0.00
2023-05-02T02:15:10.484Z,0.00
2023-05-02T02:16:10.515Z,0.00
2023-05-02T02:17:10.522Z,0.00
2023-05-02T02:18:10.643Z,0.00
2023-05-02T02:19:10.528Z,0.00
2023-05-02T02:20:10.443Z,0.00
2023-05-02T02:21:10.476Z,0.00
2023-05-02T02:22:10.402Z,0.00
2023-05-02T02:23:10.404Z,0.00
2023-05-02T02:24:10.390Z,0.00
2023-05-02T02:25:10.393Z,0.00
2023-05-02T02:26:10.359Z,0.00
2023-05-02T02:27:10.362Z,0.00
2023-05-02T02:28:10.362Z,0.00
2023-05-02T02:29:10.335Z,0.00
2023-05-02T02:30:10.361Z,0.00
2023-05-02T02:31:10.360Z,0.00
2023-05-02T02:32:10.282Z,0.00
2023-05-02T02:33:10.362Z,0.00
2023-05-02T02:34:10.266Z,0.00
2023-05-02T02:35:10.251Z,0.00
2023-05-02T02:36:10.246Z,0.00
2023-05-02T02:37:10.249Z,0.00
2023-05-02T02:38:10.247Z,0.00
2023-05-02T02:39:10.204Z,0.00
2023-05-02T02:40:10.197Z,0.00
2023-05-02T02:41:10.214Z,0.00
2023-05-02T02:42:10.162Z,0.00
2023-05-02T02:43:10.218Z,0.00
2023-05-02T02:44:12.184Z,0.00
2023-05-02T02:45:10.168Z,0.00
2023-05-02T02:46:10.158Z,0.00
2023-05-02T02:47:10.113Z,0.00
2023-05-02T02:48:10.166Z,0.00
2023-05-02T02:49:10.105Z,0.00
2023-05-02T02:50:10.079Z,0.00
2023-05-02T02:51:10.114Z,0.00
2023-05-02T02:52:10.071Z,0.00
2023-05-02T02:53:10.089Z,0.00
2023-05-02T02:54:22.946Z,0.00
2023-05-02T02:55:10.043Z,0.00
2023-05-02T02:56:10.035Z,0.00
2023-05-02T02:57:10.014Z,0.00
2023-05-02T02:58:10.038Z,0.00
2023-05-02T02:59:09.989Z,0.00
2023-05-02T03:00:09.979Z,0.00
2023-05-02T03:01:09.984Z,0.00
2023-05-02T03:02:10.026Z,0.00
2023-05-02T03:03:10.109Z,0.00
2023-05-02T03:04:09.957Z,0.00
2023-05-02T03:05:09.941Z,0.00
2023-05-02T03:06:09.958Z,0.00
2023-05-02T03:07:09.920Z,0.00
2023-05-02T03:08:09.889Z,0.00
2023-05-02T03:09:09.875Z,0.00
2023-05-02T03:10:09.866Z,0.00
2023-05-02T03:11:09.887Z,0.00
2023-05-02T03:12:09.849Z,0.00
2023-05-02T03:13:09.841Z,0.00
2023-05-02T03:14:09.840Z,0.00
2023-05-02T03:15:09.804Z,0.00
2023-05-02T03:16:09.793Z,0.00
2023-05-02T03:17:09.801Z,0.00
2023-05-02T03:18:09.842Z,0.00
2023-05-02T03:19:09.809Z,0.00
2023-05-02T03:20:09.746Z,0.00
2023-05-02T03:21:09.743Z,0.00
2023-05-02T03:22:09.798Z,0.00
2023-05-02T03:23:09.731Z,0.00
2023-05-02T03:24:09.762Z,0.00
2023-05-02T03:25:09.702Z,0.00
2023-05-02T03:26:09.718Z,0.00
2023-05-02T03:27:09.673Z,0.00
2023-05-02T03:28:09.734Z,0.00
2023-05-02T03:29:09.663Z,0.00
2023-05-02T03:30:09.672Z,0.00
2023-05-02T03:31:09.681Z,0.00
2023-05-02T03:32:09.715Z,0.00
2023-05-02T03:33:09.717Z,0.00
2023-05-02T03:34:09.611Z,0.00
2023-05-02T03:35:09.605Z,0.00
2023-05-02T03:36:09.605Z,0.00
2023-05-02T03:37:09.573Z,0.00
2023-05-02T03:38:09.566Z,0.00
2023-05-02T03:39:09.540Z,0.00
2023-05-02T03:40:09.518Z,0.00
2023-05-02T03:41:09.514Z,0.00
2023-05-02T03:42:09.494Z,0.00
2023-05-02T03:43:09.519Z,0.00
2023-05-02T03:44:09.535Z,0.00
2023-05-02T03:45:09.481Z,0.00
2023-05-02T03:46:09.447Z,0.00
2023-05-02T03:47:09.620Z,0.00
2023-05-02T03:48:09.523Z,0.00
2023-05-02T03:49:09.445Z,0.00
2023-05-02T03:50:09.439Z,0.00
2023-05-02T03:51:09.387Z,0.00
2023-05-02T03:52:09.593Z,0.00
2023-05-02T03:53:09.695Z,0.00
2023-05-02T03:54:09.380Z,0.00
2023-05-02T03:55:09.353Z,0.00
2023-05-02T03:56:09.369Z,0.00
2023-05-02T03:57:09.345Z,0.00
2023-05-02T03:58:09.398Z,0.00
2023-05-02T03:59:09.297Z,0.00
2023-05-02T04:00:09.319Z,0.00
2023-05-02T04:01:09.290Z,0.00
2023-05-02T04:02:09.423Z,0.00
2023-05-02T04:03:09.299Z,0.00
2023-05-02T04:04:09.287Z,0.00
2023-05-02T04:05:09.480Z,0.00
2023-05-02T04:06:09.297Z,0.00
2023-05-02T04:07:09.226Z,0.00
2023-05-02T04:08:09.197Z,0.00
2023-05-02T04:09:09.186Z,0.00
2023-05-02T04:10:09.220Z,0.00
2023-05-02T04:11:09.223Z,0.00
2023-05-02T04:12:09.158Z,0.00
2023-05-02T04:13:09.204Z,0.00
2023-05-02T04:14:09.180Z,0.00
2023-05-02T04:15:10.358Z,0.00
2023-05-02T04:16:09.144Z,0.00
2023-05-02T04:17:09.208Z,0.00
2023-05-02T04:18:09.201Z,0.00
2023-05-02T04:19:09.102Z,0.00
2023-05-02T04:20:09.215Z,0.00
2023-05-02T04:21:09.084Z,0.00
2023-05-02T04:22:09.056Z,0.00
2023-05-02T04:23:09.050Z,0.00
2023-05-02T04:24:09.047Z,0.00
2023-05-02T04:25:09.054Z,0.00
2023-05-02T04:26:08.985Z,0.00
2023-05-02T04:27:08.995Z,0.00
2023-05-02T04:28:09.011Z,0.00
2023-05-02T04:29:08.980Z,0.00
2023-05-02T04:30:08.950Z,0.00
2023-05-02T04:31:08.951Z,0.00
2023-05-02T04:32:08.937Z,0.00
2023-05-02T04:33:09.038Z,0.00
2023-05-02T04:34:08.905Z,0.00
2023-05-02T04:35:08.935Z,0.00
2023-05-02T04:36:08.918Z,0.00
2023-05-02T04:37:08.887Z,0.00
2023-05-02T04:38:08.894Z,0.00
2023-05-02T04:39:08.853Z,0.00
2023-05-02T04:40:08.896Z,0.00
2023-05-02T04:41:09.909Z,0.00
2023-05-02T04:42:08.880Z,0.00
2023-05-02T04:43:08.803Z,0.00
2023-05-02T04:44:08.811Z,5.62
2023-05-02T04:45:08.798Z,5.62
2023-05-02T04:46:08.887Z,5.62
2023-05-02T04:47:08.742Z,5.62
2023-05-02T04:48:08.783Z,5.62
2023-05-02T04:49:08.739Z,5.62
2023-05-02T04:50:08.711Z,5.62
2023-05-02T04:51:08.732Z,11.25
2023-05-02T04:52:08.707Z,11.25
2023-05-02T04:53:08.704Z,11.25
2023-05-02T04:54:08.670Z,11.25
2023-05-02T04:55:08.669Z,11.25
2023-05-02T04:56:08.637Z,16.88
2023-05-02T04:57:09.008Z,22.50
2023-05-02T04:58:08.670Z,22.50
2023-05-02T04:59:08.619Z,22.50
2023-05-02T05:00:08.611Z,22.50
2023-05-02T05:01:08.658Z,22.50
2023-05-02T05:02:08.880Z,22.50
2023-05-02T05:03:08.674Z,28.12
2023-05-02T05:04:08.683Z,33.75
2023-05-02T05:05:08.582Z,33.75
2023-05-02T05:06:08.592Z,33.75
2023-05-02T05:07:08.530Z,39.38
2023-05-02T05:08:08.536Z,45.00
2023-05-02T05:09:08.504Z,50.62
2023-05-02T05:10:08.546Z,50.62
2023-05-02T05:11:08.487Z,50.62
2023-05-02T05:12:08.473Z,45.00
2023-05-02T05:13:08.537Z,50.62
2023-05-02T05:14:09.482Z,56.25
2023-05-02T05:15:08.485Z,56.25
2023-05-02T05:16:08.444Z,61.88
2023-05-02T05:17:08.455Z,67.50
2023-05-02T05:18:08.468Z,67.50
2023-05-02T05:19:08.430Z,73.12
2023-05-02T05:20:09.566Z,73.12
2023-05-02T05:21:08.381Z,78.75
2023-05-02T05:22:08.377Z,78.75
2023-05-02T05:23:08.390Z,78.75
2023-05-02T05:24:08.338Z,84.38
2023-05-02T05:25:08.446Z,84.38
2023-05-02T05:26:08.333Z,78.75
2023-05-02T05:27:08.313Z,73.12
2023-05-02T05:28:08.336Z,73.12
2023-05-02T05:29:08.303Z,67.50
2023-05-02T05:30:08.268Z,67.50
2023-05-02T05:31:08.262Z,73.12
2023-05-02T05:32:08.264Z,73.12
2023-05-02T05:33:08.328Z,67.50
2023-05-02T05:34:08.261Z,67.50
2023-05-02T05:35:08.244Z,61.88
2023-05-02T05:36:08.206Z,56.25
2023-05-02T05:37:08.216Z,50.62
2023-05-02T05:38:08.197Z,45.00
2023-05-02T05:39:08.157Z,39.38
2023-05-02T05:40:08.187Z,33.75
2023-05-02T05:41:08.839Z,33.75
2023-05-02T05:42:08.124Z,33.75
2023-05-02T05:43:08.149Z,39.38
2023-05-02T05:44:08.126Z,39.38
2023-05-02T05:45:08.117Z,39.38
2023-05-02T05:46:08.184Z,39.38
2023-05-02T05:47:08.158Z,39.38
2023-05-02T05:48:08.157Z,33.75
2023-05-02T05:49:08.062Z,33.75
2023-05-02T05:50:08.036Z,33.75
2023-05-02T05:51:08.069Z,33.75
2023-05-02T05:52:08.030Z,28.12
2023-05-02T05:53:08.399Z,28.12
2023-05-02T05:54:08.160Z,28.12
2023-05-02T05:55:08.251Z,28.12
2023-05-02T05:56:07.999Z,28.12
2023-05-02T05:57:08.003Z,33.75
2023-05-02T05:58:08.070Z,22.50
2023-05-02T05:59:07.987Z,16.88
2023-05-02T06:00:08.015Z,16.88
2023-05-02T06:01:07.918Z,11.25
2023-05-02T06:02:07.945Z,11.25
2023-05-02T06:03:09.709Z,11.25
2023-05-02T06:04:07.987Z,11.25
2023-05-02T06:05:07.963Z,16.88
2023-05-02T06:06:07.933Z,16.88
2023-05-02T06:07:07.842Z,16.88
2023-05-02T06:08:07.855Z,16.88
2023-05-02T06:09:07.822Z,22.50
2023-05-02T06:10:07.902Z,22.50
2023-05-02T06:11:07.798Z,22.50
2023-05-02T06:12:07.776Z,22.50
2023-05-02T06:13:07.805Z,22.50
2023-05-02T06:14:07.807Z,22.50
2023-05-02T06:15:07.756Z,22.50
2023-05-02T06:16:07.751Z,22.50
2023-05-02T06:17:07.733Z,22.50
2023-05-02T06:18:07.791Z,28.12
2023-05-02T06:19:07.733Z,33.75
2023-05-02T06:20:07.792Z,33.75
2023-05-02T06:21:07.712Z,33.75
2023-05-02T06:22:07.670Z,33.75
2023-05-02T06:23:07.742Z,33.75
2023-05-02T06:24:07.674Z,39.38
2023-05-02T06:25:07.633Z,39.38
2023-05-02T06:26:07.643Z,39.38
2023-05-02T06:27:07.652Z,39.38
2023-05-02T06:28:07.625Z,39.38
2023-05-02T06:29:07.704Z,50.62
2023-05-02T06:30:07.582Z,61.88
2023-05-02T06:31:07.696Z,56.25
2023-05-02T06:32:07.619Z,50.62
2023-05-02T06:33:07.670Z,50.62
2023-05-02T06:34:07.612Z,56.25
2023-05-02T06:35:07.516Z,56.25
2023-05-02T06:36:07.564Z,56.25
2023-05-02T06:37:07.549Z,73.12
2023-05-02T06:38:07.680Z,67.50
2023-05-02T06:39:07.480Z,73.12
2023-05-02T06:40:07.461Z,78.75
2023-05-02T06:41:07.452Z,84.38
2023-05-02T06:42:07.437Z,84.38
2023-05-02T06:43:07.461Z,78.75
2023-05-02T06:44:07.412Z,78.75
2023-05-02T06:45:07.405Z,73.12
2023-05-02T06:46:07.393Z,90.00
2023-05-02T06:47:07.444Z,90.00
2023-05-02T06:48:07.411Z,78.75
2023-05-02T06:49:07.363Z,84.38
2023-05-02T06:50:07.425Z,95.62
2023-05-02T06:51:07.333Z,112.50
2023-05-02T06:52:07.328Z,118.12
2023-05-02T06:53:07.335Z,123.75
2023-05-02T06:54:07.292Z,135.00
2023-05-02T06:55:07.292Z,135.00
2023-05-02T06:56:07.309Z,129.38
2023-05-02T06:57:07.292Z,123.75
2023-05-02T06:58:07.280Z,129.38
2023-05-02T06:59:07.259Z,129.38
2023-05-02T07:00:07.244Z,146.25
2023-05-02T07:01:07.308Z,146.25
2023-05-02T07:02:07.216Z,146.25
2023-05-02T07:03:07.239Z,140.62
2023-05-02T07:04:07.237Z,118.12
2023-05-02T07:05:07.209Z,118.12
2023-05-02T07:06:07.236Z,118.12
2023-05-02T07:07:07.156Z,101.25
2023-05-02T07:08:07.168Z,95.62
2023-05-02T07:09:07.153Z,90.00
2023-05-02T07:10:07.125Z,84.38
2023-05-02T07:11:07.112Z,73.12
2023-05-02T07:12:07.251Z,73.12
2023-05-02T07:13:07.101Z,67.50
2023-05-02T07:14:07.069Z,61.88
2023-05-02T07:15:07.062Z,61.88
2023-05-02T07:16:07.086Z,61.88
2023-05-02T07:17:07.218Z,61.88
2023-05-02T07:18:07.072Z,61.88
2023-05-02T07:19:07.102Z,56.25
2023-05-02T07:20:07.030Z,56.25
2023-05-02T07:21:06.991Z,61.88
2023-05-02T07:22:07.021Z,56.25
2023-05-02T07:23:06.997Z,61.88
2023-05-02T07:24:06.965Z,67.50
2023-05-02T07:25:06.942Z,73.12
2023-05-02T07:26:06.946Z,90.00
2023-05-02T07:27:06.919Z,101.25
2023-05-02T07:28:06.955Z,123.75
2023-05-02T07:29:06.924Z,129.38
2023-05-02T07:30:06.925Z,135.00
2023-05-02T07:31:06.880Z,129.38
2023-05-02T07:32:06.893Z,129.38
2023-05-02T07:33:06.926Z,135.00
2023-05-02T07:34:06.894Z,140.62
2023-05-02T07:35:06.831Z,129.38
2023-05-02T07:36:06.826Z,129.38
2023-05-02T07:37:06.809Z,123.75
2023-05-02T07:38:06.864Z,129.38
2023-05-02T07:39:06.800Z,135.00
2023-05-02T07:40:06.776Z,123.75
2023-05-02T07:41:06.758Z,129.38
2023-05-02T07:42:06.757Z,135.00
2023-05-02T07:43:07.534Z,146.25
2023-05-02T07:44:06.745Z,168.75
2023-05-02T07:45:06.721Z,196.88
2023-05-02T07:46:06.869Z,213.75
2023-05-02T07:47:06.703Z,230.62
2023-05-02T07:48:06.765Z,253.12
2023-05-02T07:49:06.674Z,264.38
2023-05-02T07:50:06.674Z,270.00
2023-05-02T07:51:06.653Z,281.25
2023-05-02T07:52:06.645Z,292.50
2023-05-02T07:53:06.654Z,298.12
2023-05-02T07:54:06.644Z,303.75
2023-05-02T07:55:06.608Z,298.12
2023-05-02T07:56:06.601Z,281.25
2023-05-02T07:57:06.587Z,264.38
2023-05-02T07:58:06.621Z,236.25
2023-05-02T07:59:06.565Z,219.38
2023-05-02T08:00:06.555Z,196.88
2023-05-02T08:01:06.594Z,196.88
2023-05-02T08:02:06.591Z,180.00
2023-05-02T08:03:06.703Z,157.50
2023-05-02T08:04:06.735Z,135.00
2023-05-02T08:05:06.572Z,123.75
2023-05-02T08:06:06.544Z,112.50
2023-05-02T08:07:06.464Z,112.50
2023-05-02T08:08:06.497Z,106.88
2023-05-02T08:09:06.460Z,106.88
2023-05-02T08:10:06.453Z,101.25
2023-05-02T08:11:06.428Z,106.88
2023-05-02T08:12:06.422Z,123.75
2023-05-02T08:13:06.428Z,135.00
2023-05-02T08:14:06.421Z,151.88
2023-05-02T08:15:06.421Z,163.12
2023-05-02T08:16:06.401Z,168.75
2023-05-02T08:17:06.361Z,185.62
2023-05-02T08:18:06.402Z,174.38
2023-05-02T08:19:06.339Z,180.00
2023-05-02T08:20:06.331Z,174.38
2023-05-02T08:21:06.316Z,180.00
2023-05-02T08:22:06.307Z,202.50
2023-05-02T08:23:06.327Z,225.00
2023-05-02T08:24:06.302Z,247.50
2023-05-02T08:25:06.275Z,253.12
2023-05-02T08:26:06.270Z,258.75
2023-05-02T08:27:06.247Z,275.62
2023-05-02T08:28:06.267Z,281.25
2023-05-02T08:29:06.220Z,298.12
2023-05-02T08:30:06.644Z,303.75
2023-05-02T08:31:06.257Z,315.00
2023-05-02T08:32:06.323Z,320.62
2023-05-02T08:33:06.224Z,326.25
2023-05-02T08:34:06.187Z,337.50
2023-05-02T08:35:06.153Z,343.12
2023-05-02T08:36:06.147Z,360.00
2023-05-02T08:37:06.138Z,354.38
2023-05-02T08:38:06.152Z,354.38
2023-05-02T08:39:06.109Z,376.88
2023-05-02T08:40:06.101Z,416.25
2023-05-02T08:41:06.094Z,405.00
2023-05-02T08:42:06.076Z,393.75
2023-05-02T08:43:06.092Z,388.12
2023-05-02T08:44:06.057Z,388.12
2023-05-02T08:45:06.049Z,365.62
2023-05-02T08:46:06.039Z,315.00
2023-05-02T08:47:06.058Z,281.25
2023-05-02T08:48:06.085Z,253.12
2023-05-02T08:49:06.009Z,241.88
2023-05-02T08:50:06.010Z,236.25
2023-05-02T08:51:05.975Z,236.25
2023-05-02T08:52:05.961Z,253.12
2023-05-02T08:53:05.965Z,270.00
2023-05-02T08:54:05.937Z,298.12
2023-05-02T08:55:05.925Z,309.38
2023-05-02T08:56:05.913Z,320.62
2023-05-02T08:57:05.914Z,326.25
2023-05-02T08:58:05.918Z,326.25
2023-05-02T08:59:05.874Z,331.88
2023-05-02T09:00:05.874Z,343.12
2023-05-02T09:01:05.920Z,360.00
2023-05-02T09:02:05.846Z,376.88
2023-05-02T09:03:05.922Z,371.25
2023-05-02T09:04:05.881Z,399.38
2023-05-02T09:05:05.814Z,410.62
2023-05-02T09:06:05.854Z,399.38
2023-05-02T09:07:05.788Z,399.38
2023-05-02T09:08:05.796Z,405.00
2023-05-02T09:09:05.765Z,405.00
2023-05-02T09:10:05.771Z,399.38
2023-05-02T09:11:05.754Z,393.75
2023-05-02T09:12:05.733Z,376.88
2023-05-02T09:13:05.752Z,376.88
2023-05-02T09:14:05.720Z,376.88
2023-05-02T09:15:05.706Z,376.88
2023-05-02T09:16:05.729Z,382.50
2023-05-02T09:17:05.706Z,371.25
2023-05-02T09:18:05.919Z,371.25
2023-05-02T09:19:05.661Z,371.25
2023-05-02T09:20:05.648Z,371.25
2023-05-02T09:21:05.619Z,371.25
2023-05-02T09:22:05.621Z,382.50
2023-05-02T09:23:05.648Z,388.12
2023-05-02T09:24:05.598Z,388.12
2023-05-02T09:25:05.580Z,388.12
2023-05-02T09:26:05.578Z,382.50
2023-05-02T09:27:05.609Z,382.50
2023-05-02T09:28:05.577Z,382.50
2023-05-02T09:29:05.533Z,382.50
2023-05-02T09:30:05.529Z,376.88
2023-05-02T09:31:05.531Z,354.38
2023-05-02T09:32:05.618Z,348.75
2023-05-02T09:33:05.523Z,348.75
2023-05-02T09:34:05.485Z,360.00
2023-05-02T09:35:06.371Z,360.00
2023-05-02T09:36:05.470Z,360.00
2023-05-02T09:37:05.454Z,410.62
2023-05-02T09:38:05.466Z,388.12
2023-05-02T09:39:05.432Z,376.88
2023-05-02T09:40:05.646Z,382.50
2023-05-02T09:41:05.407Z,393.75
2023-05-02T09:42:05.398Z,410.62
2023-05-02T09:43:05.466Z,433.12
2023-05-02T09:44:05.370Z,438.75
2023-05-02T09:45:05.362Z,416.25
2023-05-02T09:46:05.400Z,461.25
2023-05-02T09:47:05.319Z,523.12
2023-05-02T09:48:05.373Z,433.12
2023-05-02T09:49:05.307Z,427.50
2023-05-02T09:50:05.304Z,455.62
2023-05-02T09:51:05.286Z,461.25
2023-05-02T09:52:05.276Z,450.00
2023-05-02T09:53:05.305Z,455.62
2023-05-02T09:54:05.271Z,461.25
2023-05-02T09:55:05.236Z,433.12
2023-05-02T09:56:05.240Z,421.88
2023-05-02T09:57:05.218Z,416.25
2023-05-02T09:58:05.209Z,393.75
2023-05-02T09:59:05.214Z,382.50
2023-05-02T10:00:05.181Z,388.12
2023-05-02T10:01:05.220Z,388.12
2023-05-02T10:02:05.281Z,399.38
2023-05-02T10:03:05.183Z,393.75
2023-05-02T10:04:05.243Z,393.75
2023-05-02T10:05:05.148Z,388.12
2023-05-02T10:06:05.479Z,416.25
2023-05-02T10:07:05.116Z,354.38
2023-05-02T10:08:05.104Z,354.38
2023-05-02T10:09:05.126Z,354.38
2023-05-02T10:10:05.084Z,371.25
2023-05-02T10:11:05.065Z,376.88
2023-05-02T10:12:05.219Z,388.12
2023-05-02T10:13:05.046Z,376.88
2023-05-02T10:14:05.054Z,365.62
2023-05-02T10:15:05.017Z,354.38
2023-05-02T10:16:05.083Z,348.75
2023-05-02T10:17:04.999Z,348.75
2023-05-02T10:18:05.017Z,343.12
2023-05-02T10:19:04.998Z,343.12
2023-05-02T10:20:05.008Z,348.75
2023-05-02T10:21:04.958Z,354.38
2023-05-02T10:22:04.948Z,360.00
2023-05-02T10:23:04.938Z,365.62
2023-05-02T10:24:04.952Z,360.00
2023-05-02T10:25:04.921Z,365.62
2023-05-02T10:26:04.907Z,365.62
2023-05-02T10:27:04.890Z,376.88
2023-05-02T10:28:04.878Z,382.50
2023-05-02T10:29:04.893Z,393.75
2023-05-02T10:30:04.930Z,399.38
2023-05-02T10:31:04.881Z,399.38
2023-05-02T10:32:04.917Z,405.00
2023-05-02T10:33:04.890Z,405.00
2023-05-02T10:34:04.832Z,405.00
2023-05-02T10:35:04.794Z,405.00
2023-05-02T10:36:04.792Z,405.00
2023-05-02T10:37:04.776Z,405.00
2023-05-02T10:38:04.767Z,410.62
2023-05-02T10:39:04.765Z,410.62
2023-05-02T10:40:04.749Z,405.00
2023-05-02T10:41:04.727Z,405.00
2023-05-02T10:42:04.746Z,399.38
2023-05-02T10:43:04.710Z,399.38
2023-05-02T10:44:04.727Z,399.38
2023-05-02T10:45:04.683Z,399.38
2023-05-02T10:46:04.683Z,410.62
2023-05-02T10:47:04.737Z,399.38
2023-05-02T10:48:04.682Z,393.75
2023-05-02T10:49:04.664Z,393.75
2023-05-02T10:50:04.636Z,393.75
2023-05-02T10:51:04.616Z,388.12
2023-05-02T10:52:04.621Z,393.75
2023-05-02T10:53:04.590Z,399.38
2023-05-02T10:54:04.613Z,410.62
2023-05-02T10:55:04.566Z,421.88
2023-05-02T10:56:04.568Z,405.00
2023-05-02T10:57:04.574Z,382.50
2023-05-02T10:58:04.536Z,388.12
2023-05-02T10:59:04.540Z,393.75
2023-05-02T11:00:04.537Z,399.38
2023-05-02T11:01:04.513Z,405.00
2023-05-02T11:02:06.953Z,410.62
2023-05-02T11:03:04.587Z,410.62
2023-05-02T11:04:04.503Z,399.38
2023-05-02T11:05:05.148Z,534.38
2023-05-02T11:06:04.464Z,360.00
2023-05-02T11:07:04.439Z,331.88
2023-05-02T11:08:04.432Z,365.62
2023-05-02T11:09:04.436Z,286.88
2023-05-02T11:10:04.398Z,275.62
2023-05-02T11:11:04.406Z,275.62
2023-05-02T11:12:04.378Z,286.88
2023-05-02T11:13:04.358Z,298.12
2023-05-02T11:14:04.371Z,315.00
2023-05-02T11:15:04.338Z,416.25
2023-05-02T11:16:04.379Z,455.62
2023-05-02T11:17:04.528Z,433.12
2023-05-02T11:18:04.369Z,585.00
2023-05-02T11:19:04.327Z,585.00
2023-05-02T11:20:04.300Z,556.88
2023-05-02T11:21:04.274Z,472.50
2023-05-02T11:22:04.271Z,427.50
2023-05-02T11:23:04.254Z,461.25
2023-05-02T11:24:04.269Z,534.38
2023-05-02T11:25:04.220Z,450.00
2023-05-02T11:26:04.216Z,421.88
2023-05-02T11:27:04.200Z,399.38
2023-05-02T11:28:04.196Z,365.62
2023-05-02T11:29:04.231Z,331.88
2023-05-02T11:30:04.175Z,309.38
2023-05-02T11:31:04.159Z,298.12
2023-05-02T11:32:04.283Z,298.12
2023-05-02T11:33:04.216Z,326.25
2023-05-02T11:34:04.153Z,331.88
2023-05-02T11:35:04.137Z,354.38
2023-05-02T11:36:04.125Z,388.12
2023-05-02T11:37:04.122Z,444.38
2023-05-02T11:38:04.092Z,601.88
2023-05-02T11:39:04.095Z,590.62
2023-05-02T11:40:04.070Z,607.50
2023-05-02T11:41:04.047Z,618.75
2023-05-02T11:42:04.025Z,478.12
2023-05-02T11:43:04.044Z,410.62
2023-05-02T11:44:04.032Z,410.62
2023-05-02T11:45:04.250Z,399.38
2023-05-02T11:46:04.029Z,365.62
2023-05-02T11:47:03.984Z,354.38
2023-05-02T11:48:04.014Z,343.12
2023-05-02T11:49:04.797Z,331.88
2023-05-02T11:50:03.938Z,331.88
2023-05-02T11:51:03.930Z,331.88
2023-05-02T11:52:03.914Z,326.25
2023-05-02T11:53:03.909Z,337.50
2023-05-02T11:54:03.927Z,489.38
2023-05-02T11:55:04.307Z,315.00
2023-05-02T11:56:03.882Z,478.12
2023-05-02T11:57:03.875Z,433.12
2023-05-02T11:58:03.855Z,388.12
2023-05-02T11:59:03.885Z,236.25
2023-05-02T12:00:03.859Z,264.38
2023-05-02T12:01:03.828Z,247.50
2023-05-02T12:02:03.923Z,264.38
2023-05-02T12:03:03.884Z,281.25
2023-05-02T12:04:03.808Z,315.00
2023-05-02T12:05:04.047Z,410.62
2023-05-02T12:06:03.974Z,506.25
2023-05-02T12:07:03.790Z,545.62
2023-05-02T12:08:03.748Z,455.62
2023-05-02T12:09:03.759Z,399.38
2023-05-02T12:10:03.716Z,556.88
2023-05-02T12:11:03.710Z,556.88
2023-05-02T12:12:03.698Z,478.12
2023-05-02T12:13:03.731Z,556.88
2023-05-02T12:14:03.699Z,450.00
2023-05-02T12:15:03.855Z,405.00
2023-05-02T12:16:03.679Z,461.25
2023-05-02T12:17:03.644Z,495.00
2023-05-02T12:18:03.653Z,478.12
2023-05-02T12:19:03.641Z,421.88
2023-05-02T12:20:03.635Z,472.50
2023-05-02T12:21:03.598Z,455.62
2023-05-02T12:22:03.647Z,399.38
2023-05-02T12:23:03.572Z,298.12
2023-05-02T12:24:03.623Z,286.88
2023-05-02T12:25:03.984Z,258.75
2023-05-02T12:26:03.557Z,253.12
2023-05-02T12:27:03.561Z,253.12
2023-05-02T12:28:03.581Z,236.25
2023-05-02T12:29:03.552Z,405.00
2023-05-02T12:30:03.924Z,292.50
2023-05-02T12:31:03.571Z,241.88
2023-05-02T12:32:03.550Z,331.88
2023-05-02T12:33:03.498Z,365.62
2023-05-02T12:34:03.631Z,405.00
2023-05-02T12:35:03.438Z,405.00
2023-05-02T12:36:03.417Z,393.75
2023-05-02T12:37:03.411Z,388.12
2023-05-02T12:38:03.398Z,382.50
2023-05-02T12:39:03.408Z,382.50
2023-05-02T12:40:03.767Z,382.50
2023-05-02T12:41:03.374Z,225.00
2023-05-02T12:42:03.389Z,213.75
2023-05-02T12:43:03.336Z,410.62
2023-05-02T12:44:03.371Z,382.50
2023-05-02T12:45:03.326Z,455.62
2023-05-02T12:46:03.306Z,286.88
2023-05-02T12:47:03.395Z,303.75
2023-05-02T12:48:03.286Z,303.75
2023-05-02T12:49:03.311Z,292.50
2023-05-02T12:50:03.539Z,286.88
2023-05-02T12:51:03.254Z,433.12